KOFK/OFK METAR and TAF weather

Enter ICAO airport designator
Station Type Date Time Source
KOFK METAR 2019/02/22 22:56 UTC NOAA

KOFK 222256Z AUTO 12011KT 8SM BKN070 BKN080 OVC095 M03/M07 A3004 RMK AO2 SLP196 T10331072


Station Type Date Time Source
KOFK Decoded METAR 2019/02/22 22:56 UTC NOAA

KARL STEFAN MEMORIAL AIRPORT, NE, United States (KOFK) 41-59N 097-26W 470M
Feb 22, 2019 - 05:56 PM EST / 2019.02.22 2256 UTC
Wind: from the ESE (120 degrees) at 13 MPH (11 KT):0
Visibility: 8 mile(s):0
Sky conditions: overcast
Temperature: 26.1 F (-3.3 C)
Windchill: 14 F (-10 C):1
Dew Point: 19.0 F (-7.2 C)
Relative Humidity: 74%
Pressure (altimeter): 30.04 in. Hg (1017 hPa)
ob: KOFK 222256Z AUTO 12011KT 8SM BKN070 BKN080 OVC095 M03/M07 A3004 RMK AO2 SLP196 T10331072
cycle: 23

Station Type Date Time Source
KOFK TAF 2019/02/22 18:30 UTC NOAA

TAF KOFK 221729Z 2218/2318 12010KT P6SM OVC110
FM222200 12011KT 6SM -SN OVC060
FM230100 12010KT 6SM -FZDZSN OVC020
FM230300 13008KT 5SM -FZDZ OVC008
FM231300 03007KT 2SM -SN OVC003
FM231600 35015KT 2SM -SN OVC003


Example: see airport list